sensor_id;sensor_type;location;lat;lon;timestamp;P1;durP1;ratioP1;P2;durP2;ratioP2
3817;SDS011;1924;48.078;11.516;2023-02-28T00:02:25;20.60;;;0.70;;
3817;SDS011;1924;48.078;11.516;2023-02-28T00:04:52;20.70;;;0.70;;
3817;SDS011;1924;48.078;11.516;2023-02-28T00:07:26;20.60;;;0.80;;
3817;SDS011;1924;48.078;11.516;2023-02-28T00:09:52;20.63;;;0.80;;
3817;SDS011;1924;48.078;11.516;2023-02-28T00:12:19;20.67;;;0.70;;
3817;SDS011;1924;48.078;11.516;2023-02-28T00:14:47;20.57;;;0.80;;
3817;SDS011;1924;48.078;11.516;2023-02-28T00:17:14;21.13;;;0.80;;
3817;SDS011;1924;48.078;11.516;2023-02-28T00:19:42;20.73;;;0.80;;
3817;SDS011;1924;48.078;11.516;2023-02-28T00:22:09;20.67;;;0.80;;
3817;SDS011;1924;48.078;11.516;2023-02-28T00:24:36;20.60;;;0.77;;
3817;SDS011;1924;48.078;11.516;2023-02-28T00:27:03;20.50;;;0.80;;
3817;SDS011;1924;48.078;11.516;2023-02-28T00:29:30;20.73;;;0.80;;
3817;SDS011;1924;48.078;11.516;2023-02-28T00:31:58;20.77;;;0.80;;
3817;SDS011;1924;48.078;11.516;2023-02-28T00:34:24;20.63;;;0.80;;
3817;SDS011;1924;48.078;11.516;2023-02-28T00:36:51;20.60;;;0.80;;
3817;SDS011;1924;48.078;11.516;2023-02-28T00:39:18;20.60;;;0.80;;
3817;SDS011;1924;48.078;11.516;2023-02-28T00:41:44;20.57;;;0.80;;
3817;SDS011;1924;48.078;11.516;2023-02-28T00:44:11;20.70;;;0.80;;
3817;SDS011;1924;48.078;11.516;2023-02-28T00:46:38;20.60;;;0.80;;
3817;SDS011;1924;48.078;11.516;2023-02-28T00:49:06;20.40;;;0.70;;
3817;SDS011;1924;48.078;11.516;2023-02-28T00:51:33;20.67;;;0.77;;
3817;SDS011;1924;48.078;11.516;2023-02-28T00:53:59;20.63;;;0.73;;
3817;SDS011;1924;48.078;11.516;2023-02-28T00:56:26;20.60;;;0.80;;
3817;SDS011;1924;48.078;11.516;2023-02-28T00:58:53;20.50;;;0.80;;
3817;SDS011;1924;48.078;11.516;2023-02-28T01:01:19;20.60;;;0.80;;
3817;SDS011;1924;48.078;11.516;2023-02-28T01:03:46;20.60;;;0.70;;
3817;SDS011;1924;48.078;11.516;2023-02-28T01:06:14;20.60;;;0.70;;
3817;SDS011;1924;48.078;11.516;2023-02-28T01:08:41;20.67;;;0.70;;
3817;SDS011;1924;48.078;11.516;2023-02-28T01:11:08;20.77;;;0.80;;
3817;SDS011;1924;48.078;11.516;2023-02-28T01:13:36;20.63;;;0.73;;
3817;SDS011;1924;48.078;11.516;2023-02-28T01:16:03;20.60;;;0.70;;
3817;SDS011;1924;48.078;11.516;2023-02-28T01:18:31;20.60;;;0.80;;
3817;SDS011;1924;48.078;11.516;2023-02-28T01:20:57;20.57;;;0.73;;
3817;SDS011;1924;48.078;11.516;2023-02-28T01:23:25;20.60;;;0.80;;
3817;SDS011;1924;48.078;11.516;2023-02-28T01:25:52;20.60;;;0.80;;
3817;SDS011;1924;48.078;11.516;2023-02-28T01:28:19;20.47;;;0.70;;
3817;SDS011;1924;48.078;11.516;2023-02-28T01:30:47;20.57;;;0.70;;
3817;SDS011;1924;48.078;11.516;2023-02-28T01:33:14;20.67;;;0.80;;
3817;SDS011;1924;48.078;11.516;2023-02-28T01:35:41;20.60;;;0.80;;
3817;SDS011;1924;48.078;11.516;2023-02-28T01:38:08;20.67;;;0.80;;
3817;SDS011;1924;48.078;11.516;2023-02-28T01:40:36;20.57;;;0.80;;
3817;SDS011;1924;48.078;11.516;2023-02-28T01:43:04;20.50;;;0.80;;
3817;SDS011;1924;48.078;11.516;2023-02-28T01:45:42;20.57;;;0.80;;
3817;SDS011;1924;48.078;11.516;2023-02-28T01:48:09;20.50;;;0.80;;
3817;SDS011;1924;48.078;11.516;2023-02-28T01:50:39;20.60;;;0.80;;
3817;SDS011;1924;48.078;11.516;2023-02-28T01:53:10;20.67;;;0.80;;
3817;SDS011;1924;48.078;11.516;2023-02-28T01:55:41;20.57;;;0.80;;
3817;SDS011;1924;48.078;11.516;2023-02-28T01:58:11;20.67;;;0.70;;
3817;SDS011;1924;48.078;11.516;2023-02-28T02:00:37;20.60;;;0.70;;
3817;SDS011;1924;48.078;11.516;2023-02-28T02:03:08;20.60;;;0.80;;
3817;SDS011;1924;48.078;11.516;2023-02-28T02:05:37;20.50;;;0.80;;
3817;SDS011;1924;48.078;11.516;2023-02-28T02:08:05;20.67;;;0.80;;
3817;SDS011;1924;48.078;11.516;2023-02-28T02:10:35;20.47;;;0.80;;
3817;SDS011;1924;48.078;11.516;2023-02-28T02:16:08;20.70;;;0.80;;
3817;SDS011;1924;48.078;11.516;2023-02-28T02:18:43;20.63;;;0.70;;
3817;SDS011;1924;48.078;11.516;2023-02-28T02:27:17;20.60;;;0.73;;
3817;SDS011;1924;48.078;11.516;2023-02-28T02:30:10;20.50;;;0.80;;
3817;SDS011;1924;48.078;11.516;2023-02-28T02:35:56;20.63;;;0.73;;
3817;SDS011;1924;48.078;11.516;2023-02-28T02:38:31;20.50;;;0.73;;
3817;SDS011;1924;48.078;11.516;2023-02-28T02:41:04;20.63;;;0.77;;
3817;SDS011;1924;48.078;11.516;2023-02-28T02:43:39;20.60;;;0.80;;
3817;SDS011;1924;48.078;11.516;2023-02-28T02:46:12;20.60;;;0.70;;
3817;SDS011;1924;48.078;11.516;2023-02-28T02:48:42;20.57;;;0.70;;
3817;SDS011;1924;48.078;11.516;2023-02-28T02:51:13;20.63;;;0.80;;
3817;SDS011;1924;48.078;11.516;2023-02-28T02:53:44;20.63;;;0.80;;
3817;SDS011;1924;48.078;11.516;2023-02-28T02:56:15;20.63;;;0.80;;
3817;SDS011;1924;48.078;11.516;2023-02-28T02:58:45;20.50;;;0.80;;
3817;SDS011;1924;48.078;11.516;2023-02-28T03:01:16;20.50;;;0.73;;
3817;SDS011;1924;48.078;11.516;2023-02-28T03:03:52;20.60;;;0.80;;
3817;SDS011;1924;48.078;11.516;2023-02-28T05:02:20;20.57;;;0.80;;
3817;SDS011;1924;48.078;11.516;2023-02-28T05:04:48;20.50;;;0.77;;
3817;SDS011;1924;48.078;11.516;2023-02-28T05:07:15;20.67;;;0.80;;
3817;SDS011;1924;48.078;11.516;2023-02-28T05:09:42;20.60;;;0.80;;
3817;SDS011;1924;48.078;11.516;2023-02-28T05:12:08;20.53;;;0.80;;
3817;SDS011;1924;48.078;11.516;2023-02-28T05:14:35;20.50;;;0.80;;
3817;SDS011;1924;48.078;11.516;2023-02-28T05:17:02;20.50;;;0.73;;
3817;SDS011;1924;48.078;11.516;2023-02-28T05:19:30;20.57;;;0.77;;
3817;SDS011;1924;48.078;11.516;2023-02-28T05:21:57;20.60;;;0.80;;
3817;SDS011;1924;48.078;11.516;2023-02-28T05:24:24;20.60;;;0.80;;
3817;SDS011;1924;48.078;11.516;2023-02-28T05:26:51;20.57;;;0.80;;
3817;SDS011;1924;48.078;11.516;2023-02-28T05:29:19;20.53;;;0.80;;
3817;SDS011;1924;48.078;11.516;2023-02-28T05:31:46;20.43;;;0.80;;
3817;SDS011;1924;48.078;11.516;2023-02-28T05:34:13;20.53;;;0.80;;
3817;SDS011;1924;48.078;11.516;2023-02-28T05:36:41;20.47;;;0.73;;
3817;SDS011;1924;48.078;11.516;2023-02-28T05:39:08;20.50;;;0.80;;
3817;SDS011;1924;48.078;11.516;2023-02-28T05:41:37;20.30;;;0.80;;
3817;SDS011;1924;48.078;11.516;2023-02-28T05:44:07;20.57;;;0.73;;
3817;SDS011;1924;48.078;11.516;2023-02-28T05:46:34;20.53;;;0.80;;
3817;SDS011;1924;48.078;11.516;2023-02-28T05:49:01;20.47;;;0.80;;
3817;SDS011;1924;48.078;11.516;2023-02-28T05:51:28;20.60;;;0.80;;
3817;SDS011;1924;48.078;11.516;2023-02-28T05:53:59;20.40;;;0.80;;
3817;SDS011;1924;48.078;11.516;2023-02-28T05:56:27;20.60;;;0.80;;
3817;SDS011;1924;48.078;11.516;2023-02-28T05:58:54;20.43;;;0.80;;
3817;SDS011;1924;48.078;11.516;2023-02-28T06:01:22;20.47;;;0.80;;
3817;SDS011;1924;48.078;11.516;2023-02-28T06:03:51;20.40;;;0.80;;
3817;SDS011;1924;48.078;11.516;2023-02-28T06:06:18;20.30;;;0.80;;
3817;SDS011;1924;48.078;11.516;2023-02-28T06:08:44;20.40;;;0.80;;
3817;SDS011;1924;48.078;11.516;2023-02-28T06:11:12;20.47;;;0.80;;
3817;SDS011;1924;48.078;11.516;2023-02-28T06:13:39;20.40;;;0.80;;
3817;SDS011;1924;48.078;11.516;2023-02-28T06:16:07;20.43;;;0.80;;
3817;SDS011;1924;48.078;11.516;2023-02-28T06:18:35;20.33;;;0.80;;
3817;SDS011;1924;48.078;11.516;2023-02-28T06:21:02;20.30;;;0.80;;
3817;SDS011;1924;48.078;11.516;2023-02-28T06:23:29;20.43;;;0.80;;
3817;SDS011;1924;48.078;11.516;2023-02-28T06:25:55;20.40;;;0.80;;
3817;SDS011;1924;48.078;11.516;2023-02-28T06:28:24;20.50;;;0.80;;
3817;SDS011;1924;48.078;11.516;2023-02-28T06:30:51;20.43;;;0.80;;
3817;SDS011;1924;48.078;11.516;2023-02-28T06:33:18;20.47;;;0.80;;
3817;SDS011;1924;48.078;11.516;2023-02-28T06:35:46;20.40;;;0.80;;
3817;SDS011;1924;48.078;11.516;2023-02-28T06:38:13;20.50;;;0.80;;
3817;SDS011;1924;48.078;11.516;2023-02-28T06:40:40;20.20;;;0.80;;
3817;SDS011;1924;48.078;11.516;2023-02-28T06:43:07;20.33;;;0.80;;
3817;SDS011;1924;48.078;11.516;2023-02-28T06:45:35;20.50;;;0.80;;
3817;SDS011;1924;48.078;11.516;2023-02-28T06:48:02;20.30;;;0.80;;
3817;SDS011;1924;48.078;11.516;2023-02-28T06:50:29;20.37;;;0.80;;
3817;SDS011;1924;48.078;11.516;2023-02-28T06:52:57;20.40;;;0.80;;
3817;SDS011;1924;48.078;11.516;2023-02-28T06:55:24;20.37;;;0.80;;
3817;SDS011;1924;48.078;11.516;2023-02-28T06:57:50;20.40;;;0.80;;
3817;SDS011;1924;48.078;11.516;2023-02-28T07:00:17;20.37;;;0.80;;
3817;SDS011;1924;48.078;11.516;2023-02-28T07:02:46;20.40;;;0.80;;
3817;SDS011;1924;48.078;11.516;2023-02-28T07:05:13;20.47;;;0.80;;
3817;SDS011;1924;48.078;11.516;2023-02-28T07:07:39;20.20;;;0.80;;
3817;SDS011;1924;48.078;11.516;2023-02-28T07:10:09;20.40;;;0.80;;
3817;SDS011;1924;48.078;11.516;2023-02-28T07:12:37;20.20;;;0.80;;
3817;SDS011;1924;48.078;11.516;2023-02-28T07:15:04;20.30;;;0.80;;
3817;SDS011;1924;48.078;11.516;2023-02-28T07:17:32;20.30;;;0.80;;
3817;SDS011;1924;48.078;11.516;2023-02-28T07:20:00;20.20;;;0.80;;
3817;SDS011;1924;48.078;11.516;2023-02-28T07:22:29;20.27;;;0.80;;
3817;SDS011;1924;48.078;11.516;2023-02-28T07:24:56;20.27;;;0.80;;
3817;SDS011;1924;48.078;11.516;2023-02-28T07:27:23;20.40;;;0.80;;
3817;SDS011;1924;48.078;11.516;2023-02-28T07:29:50;20.30;;;0.80;;
3817;SDS011;1924;48.078;11.516;2023-02-28T07:32:17;20.20;;;0.80;;
3817;SDS011;1924;48.078;11.516;2023-02-28T07:34:44;20.27;;;0.80;;
3817;SDS011;1924;48.078;11.516;2023-02-28T07:37:12;20.37;;;0.80;;
3817;SDS011;1924;48.078;11.516;2023-02-28T07:39:39;20.30;;;0.80;;
3817;SDS011;1924;48.078;11.516;2023-02-28T07:42:07;20.23;;;0.80;;
3817;SDS011;1924;48.078;11.516;2023-02-28T07:44:35;20.33;;;0.80;;
3817;SDS011;1924;48.078;11.516;2023-02-28T07:47:05;20.33;;;0.80;;
3817;SDS011;1924;48.078;11.516;2023-02-28T07:49:32;20.17;;;0.80;;
3817;SDS011;1924;48.078;11.516;2023-02-28T07:51:59;20.37;;;0.80;;
3817;SDS011;1924;48.078;11.516;2023-02-28T07:54:27;20.40;;;0.80;;
3817;SDS011;1924;48.078;11.516;2023-02-28T07:56:54;20.33;;;0.77;;
3817;SDS011;1924;48.078;11.516;2023-02-28T07:59:20;20.37;;;0.73;;
3817;SDS011;1924;48.078;11.516;2023-02-28T08:01:47;20.37;;;0.80;;
3817;SDS011;1924;48.078;11.516;2023-02-28T08:04:15;20.10;;;0.80;;
3817;SDS011;1924;48.078;11.516;2023-02-28T08:06:42;20.37;;;0.80;;
3817;SDS011;1924;48.078;11.516;2023-02-28T08:09:08;20.33;;;0.80;;
3817;SDS011;1924;48.078;11.516;2023-02-28T08:11:37;20.27;;;0.80;;
3817;SDS011;1924;48.078;11.516;2023-02-28T08:14:03;20.30;;;0.80;;
3817;SDS011;1924;48.078;11.516;2023-02-28T08:16:30;20.43;;;0.80;;
3817;SDS011;1924;48.078;11.516;2023-02-28T08:18:57;20.30;;;0.70;;
3817;SDS011;1924;48.078;11.516;2023-02-28T08:21:24;20.30;;;0.70;;
3817;SDS011;1924;48.078;11.516;2023-02-28T08:23:51;20.40;;;0.70;;
3817;SDS011;1924;48.078;11.516;2023-02-28T08:26:18;20.50;;;0.70;;
3817;SDS011;1924;48.078;11.516;2023-02-28T08:28:46;20.40;;;0.70;;
3817;SDS011;1924;48.078;11.516;2023-02-28T08:31:14;20.33;;;0.70;;
3817;SDS011;1924;48.078;11.516;2023-02-28T08:33:42;20.60;;;0.80;;
3817;SDS011;1924;48.078;11.516;2023-02-28T08:36:10;20.47;;;0.70;;
3817;SDS011;1924;48.078;11.516;2023-02-28T08:38:37;20.50;;;0.70;;
3817;SDS011;1924;48.078;11.516;2023-02-28T08:41:04;20.40;;;0.70;;
3817;SDS011;1924;48.078;11.516;2023-02-28T08:43:32;20.53;;;0.70;;
3817;SDS011;1924;48.078;11.516;2023-02-28T08:46:01;20.40;;;0.70;;
3817;SDS011;1924;48.078;11.516;2023-02-28T08:48:29;20.50;;;0.80;;
3817;SDS011;1924;48.078;11.516;2023-02-28T08:50:58;20.53;;;0.80;;
3817;SDS011;1924;48.078;11.516;2023-02-28T08:53:26;20.47;;;0.70;;
3817;SDS011;1924;48.078;11.516;2023-02-28T08:55:56;20.43;;;0.70;;
3817;SDS011;1924;48.078;11.516;2023-02-28T08:58:24;20.50;;;0.70;;
3817;SDS011;1924;48.078;11.516;2023-02-28T09:00:50;20.43;;;0.70;;
3817;SDS011;1924;48.078;11.516;2023-02-28T09:03:20;20.37;;;0.80;;
3817;SDS011;1924;48.078;11.516;2023-02-28T09:05:54;20.47;;;0.80;;
3817;SDS011;1924;48.078;11.516;2023-02-28T09:08:22;20.40;;;0.80;;
3817;SDS011;1924;48.078;11.516;2023-02-28T09:10:50;20.30;;;0.70;;
3817;SDS011;1924;48.078;11.516;2023-02-28T09:13:17;20.40;;;0.80;;
3817;SDS011;1924;48.078;11.516;2023-02-28T09:15:43;20.47;;;0.80;;
3817;SDS011;1924;48.078;11.516;2023-02-28T09:18:10;20.37;;;0.80;;
3817;SDS011;1924;48.078;11.516;2023-02-28T09:20:39;20.43;;;0.70;;
3817;SDS011;1924;48.078;11.516;2023-02-28T09:23:06;20.47;;;0.70;;
3817;SDS011;1924;48.078;11.516;2023-02-28T09:25:35;20.57;;;0.70;;
3817;SDS011;1924;48.078;11.516;2023-02-28T09:28:02;20.50;;;0.70;;
3817;SDS011;1924;48.078;11.516;2023-02-28T09:30:29;20.50;;;0.70;;
3817;SDS011;1924;48.078;11.516;2023-02-28T09:32:56;20.43;;;0.80;;
3817;SDS011;1924;48.078;11.516;2023-02-28T09:35:23;20.40;;;0.80;;
3817;SDS011;1924;48.078;11.516;2023-02-28T09:37:53;20.50;;;0.80;;
3817;SDS011;1924;48.078;11.516;2023-02-28T09:40:20;20.60;;;0.70;;
3817;SDS011;1924;48.078;11.516;2023-02-28T09:42:50;20.50;;;0.70;;
3817;SDS011;1924;48.078;11.516;2023-02-28T09:45:22;20.50;;;0.73;;
3817;SDS011;1924;48.078;11.516;2023-02-28T09:47:54;20.50;;;0.70;;
3817;SDS011;1924;48.078;11.516;2023-02-28T09:50:28;20.60;;;0.70;;
3817;SDS011;1924;48.078;11.516;2023-02-28T09:53:00;20.50;;;0.70;;
3817;SDS011;1924;48.078;11.516;2023-02-28T09:55:31;20.50;;;0.70;;
3817;SDS011;1924;48.078;11.516;2023-02-28T09:58:03;20.63;;;0.77;;
3817;SDS011;1924;48.078;11.516;2023-02-28T10:00:32;20.70;;;0.77;;
3817;SDS011;1924;48.078;11.516;2023-02-28T10:03:08;20.60;;;0.70;;
3817;SDS011;1924;48.078;11.516;2023-02-28T10:05:51;20.50;;;0.70;;
3817;SDS011;1924;48.078;11.516;2023-02-28T10:08:22;20.80;;;0.70;;
3817;SDS011;1924;48.078;11.516;2023-02-28T10:10:53;20.80;;;0.70;;
3817;SDS011;1924;48.078;11.516;2023-02-28T10:13:24;20.63;;;0.70;;
3817;SDS011;1924;48.078;11.516;2023-02-28T10:15:58;20.50;;;0.70;;
3817;SDS011;1924;48.078;11.516;2023-02-28T10:18:30;20.73;;;0.70;;
3817;SDS011;1924;48.078;11.516;2023-02-28T10:21:05;20.60;;;0.70;;
3817;SDS011;1924;48.078;11.516;2023-02-28T10:23:37;20.73;;;0.70;;
3817;SDS011;1924;48.078;11.516;2023-02-28T10:26:08;20.80;;;0.73;;
3817;SDS011;1924;48.078;11.516;2023-02-28T10:28:38;20.73;;;0.70;;
3817;SDS011;1924;48.078;11.516;2023-02-28T10:31:06;20.70;;;0.70;;
3817;SDS011;1924;48.078;11.516;2023-02-28T10:33:37;20.57;;;0.73;;
3817;SDS011;1924;48.078;11.516;2023-02-28T10:36:04;20.80;;;0.70;;
3817;SDS011;1924;48.078;11.516;2023-02-28T10:38:33;20.70;;;0.70;;
3817;SDS011;1924;48.078;11.516;2023-02-28T10:41:04;20.77;;;0.70;;
3817;SDS011;1924;48.078;11.516;2023-02-28T10:43:33;20.90;;;0.70;;
3817;SDS011;1924;48.078;11.516;2023-02-28T10:46:02;20.90;;;0.70;;
3817;SDS011;1924;48.078;11.516;2023-02-28T10:48:36;20.90;;;0.80;;
3817;SDS011;1924;48.078;11.516;2023-02-28T10:51:05;20.73;;;0.70;;
3817;SDS011;1924;48.078;11.516;2023-02-28T10:53:36;21.00;;;0.70;;
3817;SDS011;1924;48.078;11.516;2023-02-28T10:56:14;20.73;;;0.70;;
3817;SDS011;1924;48.078;11.516;2023-02-28T10:58:50;20.90;;;0.70;;
3817;SDS011;1924;48.078;11.516;2023-02-28T11:01:20;20.90;;;0.70;;
3817;SDS011;1924;48.078;11.516;2023-02-28T11:03:49;20.87;;;0.70;;
3817;SDS011;1924;48.078;11.516;2023-02-28T11:06:17;20.87;;;0.70;;
3817;SDS011;1924;48.078;11.516;2023-02-28T11:08:48;20.90;;;0.70;;
3817;SDS011;1924;48.078;11.516;2023-02-28T11:11:18;20.60;;;0.70;;
3817;SDS011;1924;48.078;11.516;2023-02-28T11:13:46;20.77;;;0.70;;
3817;SDS011;1924;48.078;11.516;2023-02-28T11:16:16;20.80;;;0.70;;
3817;SDS011;1924;48.078;11.516;2023-02-28T11:18:43;20.97;;;0.73;;
3817;SDS011;1924;48.078;11.516;2023-02-28T11:21:22;21.10;;;0.70;;
3817;SDS011;1924;48.078;11.516;2023-02-28T11:23:54;21.40;;;0.70;;
3817;SDS011;1924;48.078;11.516;2023-02-28T11:26:41;21.77;;;0.80;;
3817;SDS011;1924;48.078;11.516;2023-02-28T11:29:11;21.97;;;0.80;;
3817;SDS011;1924;48.078;11.516;2023-02-28T11:31:47;22.10;;;0.80;;
3817;SDS011;1924;48.078;11.516;2023-02-28T11:34:41;22.10;;;0.80;;
3817;SDS011;1924;48.078;11.516;2023-02-28T11:37:13;22.37;;;0.80;;
3817;SDS011;1924;48.078;11.516;2023-02-28T11:39:42;22.50;;;0.80;;
3817;SDS011;1924;48.078;11.516;2023-02-28T11:42:19;22.67;;;0.80;;
3817;SDS011;1924;48.078;11.516;2023-02-28T11:45:01;22.70;;;0.80;;
3817;SDS011;1924;48.078;11.516;2023-02-28T11:47:38;22.50;;;0.80;;
3817;SDS011;1924;48.078;11.516;2023-02-28T11:50:16;22.47;;;0.80;;
3817;SDS011;1924;48.078;11.516;2023-02-28T11:52:53;22.40;;;0.80;;
3817;SDS011;1924;48.078;11.516;2023-02-28T11:55:23;22.33;;;0.80;;
3817;SDS011;1924;48.078;11.516;2023-02-28T11:58:03;22.10;;;0.80;;
3817;SDS011;1924;48.078;11.516;2023-02-28T12:00:45;22.00;;;0.80;;
3817;SDS011;1924;48.078;11.516;2023-02-28T12:03:35;22.10;;;0.80;;
3817;SDS011;1924;48.078;11.516;2023-02-28T12:06:13;22.20;;;0.80;;
3817;SDS011;1924;48.078;11.516;2023-02-28T12:08:51;22.37;;;0.80;;
3817;SDS011;1924;48.078;11.516;2023-02-28T12:11:30;22.50;;;0.80;;
3817;SDS011;1924;48.078;11.516;2023-02-28T12:14:12;22.73;;;0.80;;
3817;SDS011;1924;48.078;11.516;2023-02-28T12:16:59;22.50;;;0.80;;
3817;SDS011;1924;48.078;11.516;2023-02-28T12:19:39;22.40;;;0.80;;
3817;SDS011;1924;48.078;11.516;2023-02-28T12:22:12;22.57;;;0.80;;
3817;SDS011;1924;48.078;11.516;2023-02-28T12:25:13;22.50;;;0.80;;
3817;SDS011;1924;48.078;11.516;2023-02-28T12:28:06;22.40;;;0.70;;
3817;SDS011;1924;48.078;11.516;2023-02-28T12:30:37;22.33;;;0.80;;
3817;SDS011;1924;48.078;11.516;2023-02-28T12:33:07;22.20;;;0.80;;
3817;SDS011;1924;48.078;11.516;2023-02-28T12:35:39;22.30;;;0.80;;
3817;SDS011;1924;48.078;11.516;2023-02-28T12:38:14;22.40;;;0.80;;
3817;SDS011;1924;48.078;11.516;2023-02-28T12:40:47;22.10;;;0.80;;
3817;SDS011;1924;48.078;11.516;2023-02-28T12:43:17;22.30;;;0.80;;
3817;SDS011;1924;48.078;11.516;2023-02-28T12:45:48;22.10;;;0.80;;
3817;SDS011;1924;48.078;11.516;2023-02-28T12:48:19;22.20;;;0.80;;
3817;SDS011;1924;48.078;11.516;2023-02-28T12:50:51;22.07;;;0.70;;
3817;SDS011;1924;48.078;11.516;2023-02-28T12:53:21;22.00;;;0.80;;
3817;SDS011;1924;48.078;11.516;2023-02-28T12:55:55;22.20;;;0.80;;
3817;SDS011;1924;48.078;11.516;2023-02-28T12:58:29;22.20;;;0.77;;
3817;SDS011;1924;48.078;11.516;2023-02-28T13:01:20;22.17;;;0.80;;
3817;SDS011;1924;48.078;11.516;2023-02-28T13:04:05;22.10;;;0.70;;
3817;SDS011;1924;48.078;11.516;2023-02-28T13:06:59;22.20;;;0.80;;
3817;SDS011;1924;48.078;11.516;2023-02-28T13:09:38;22.50;;;0.80;;
3817;SDS011;1924;48.078;11.516;2023-02-28T13:12:12;22.60;;;0.77;;
3817;SDS011;1924;48.078;11.516;2023-02-28T13:14:39;22.50;;;0.80;;
3817;SDS011;1924;48.078;11.516;2023-02-28T13:17:11;22.50;;;0.80;;
3817;SDS011;1924;48.078;11.516;2023-02-28T13:19:44;22.73;;;0.80;;
3817;SDS011;1924;48.078;11.516;2023-02-28T13:22:36;22.90;;;0.80;;
3817;SDS011;1924;48.078;11.516;2023-02-28T13:28:08;23.10;;;0.80;;
3817;SDS011;1924;48.078;11.516;2023-02-28T13:33:31;23.10;;;0.80;;
3817;SDS011;1924;48.078;11.516;2023-02-28T13:36:07;22.90;;;0.80;;
3817;SDS011;1924;48.078;11.516;2023-02-28T13:38:36;22.97;;;0.80;;
3817;SDS011;1924;48.078;11.516;2023-02-28T13:44:08;22.60;;;0.80;;
3817;SDS011;1924;48.078;11.516;2023-02-28T13:46:38;22.77;;;0.80;;
3817;SDS011;1924;48.078;11.516;2023-02-28T13:49:47;22.70;;;0.80;;
3817;SDS011;1924;48.078;11.516;2023-02-28T13:52:16;22.80;;;0.80;;
3817;SDS011;1924;48.078;11.516;2023-02-28T13:54:55;22.80;;;0.80;;
3817;SDS011;1924;48.078;11.516;2023-02-28T13:57:33;22.60;;;0.80;;
3817;SDS011;1924;48.078;11.516;2023-02-28T14:00:15;22.63;;;0.80;;
3817;SDS011;1924;48.078;11.516;2023-02-28T14:02:54;22.60;;;0.80;;
3817;SDS011;1924;48.078;11.516;2023-02-28T14:05:36;22.57;;;0.80;;
3817;SDS011;1924;48.078;11.516;2023-02-28T14:08:04;22.50;;;0.80;;
3817;SDS011;1924;48.078;11.516;2023-02-28T14:10:39;22.40;;;0.80;;
3817;SDS011;1924;48.078;11.516;2023-02-28T14:13:12;22.40;;;0.80;;
3817;SDS011;1924;48.078;11.516;2023-02-28T14:16:01;22.50;;;0.80;;
3817;SDS011;1924;48.078;11.516;2023-02-28T14:18:31;22.50;;;0.70;;
3817;SDS011;1924;48.078;11.516;2023-02-28T14:21:11;22.40;;;0.77;;
3817;SDS011;1924;48.078;11.516;2023-02-28T14:26:56;22.30;;;0.80;;
3817;SDS011;1924;48.078;11.516;2023-02-28T14:29:43;22.50;;;0.80;;
3817;SDS011;1924;48.078;11.516;2023-02-28T14:32:35;22.40;;;0.80;;
3817;SDS011;1924;48.078;11.516;2023-02-28T14:35:16;22.40;;;0.80;;
3817;SDS011;1924;48.078;11.516;2023-02-28T14:38:07;22.50;;;0.80;;
3817;SDS011;1924;48.078;11.516;2023-02-28T14:40:42;22.47;;;0.80;;
3817;SDS011;1924;48.078;11.516;2023-02-28T14:43:18;22.57;;;0.80;;
3817;SDS011;1924;48.078;11.516;2023-02-28T14:45:49;22.60;;;0.73;;
3817;SDS011;1924;48.078;11.516;2023-02-28T14:48:17;22.70;;;0.80;;
3817;SDS011;1924;48.078;11.516;2023-02-28T14:50:49;22.70;;;0.80;;
3817;SDS011;1924;48.078;11.516;2023-02-28T14:53:19;22.70;;;0.70;;
3817;SDS011;1924;48.078;11.516;2023-02-28T14:55:48;22.50;;;0.80;;
3817;SDS011;1924;48.078;11.516;2023-02-28T14:58:20;22.40;;;0.70;;
3817;SDS011;1924;48.078;11.516;2023-02-28T15:00:51;22.40;;;0.80;;
3817;SDS011;1924;48.078;11.516;2023-02-28T15:03:20;22.63;;;0.73;;
3817;SDS011;1924;48.078;11.516;2023-02-28T15:05:53;22.30;;;0.73;;
3817;SDS011;1924;48.078;11.516;2023-02-28T15:08:20;22.40;;;0.70;;
3817;SDS011;1924;48.078;11.516;2023-02-28T15:10:53;22.27;;;0.80;;
3817;SDS011;1924;48.078;11.516;2023-02-28T15:13:22;22.20;;;0.77;;
3817;SDS011;1924;48.078;11.516;2023-02-28T15:15:53;22.27;;;0.73;;
3817;SDS011;1924;48.078;11.516;2023-02-28T15:18:24;22.20;;;0.80;;
3817;SDS011;1924;48.078;11.516;2023-02-28T15:20:56;22.27;;;0.80;;
3817;SDS011;1924;48.078;11.516;2023-02-28T15:23:25;22.10;;;0.70;;
3817;SDS011;1924;48.078;11.516;2023-02-28T15:25:52;22.27;;;0.80;;
3817;SDS011;1924;48.078;11.516;2023-02-28T15:28:20;22.37;;;0.80;;
3817;SDS011;1924;48.078;11.516;2023-02-28T15:30:53;22.20;;;0.80;;
3817;SDS011;1924;48.078;11.516;2023-02-28T15:33:23;22.20;;;0.80;;
3817;SDS011;1924;48.078;11.516;2023-02-28T15:35:51;22.40;;;0.80;;
3817;SDS011;1924;48.078;11.516;2023-02-28T15:38:33;22.30;;;0.80;;
3817;SDS011;1924;48.078;11.516;2023-02-28T15:41:01;22.47;;;0.80;;
3817;SDS011;1924;48.078;11.516;2023-02-28T15:43:33;22.47;;;0.73;;
3817;SDS011;1924;48.078;11.516;2023-02-28T15:46:01;22.40;;;0.70;;
3817;SDS011;1924;48.078;11.516;2023-02-28T15:48:29;22.40;;;0.80;;
3817;SDS011;1924;48.078;11.516;2023-02-28T15:51:01;22.30;;;0.77;;
3817;SDS011;1924;48.078;11.516;2023-02-28T15:53:34;22.47;;;0.77;;
3817;SDS011;1924;48.078;11.516;2023-02-28T15:56:04;22.27;;;0.70;;
3817;SDS011;1924;48.078;11.516;2023-02-28T15:58:33;22.50;;;0.80;;
3817;SDS011;1924;48.078;11.516;2023-02-28T16:01:04;22.50;;;0.70;;
3817;SDS011;1924;48.078;11.516;2023-02-28T16:03:45;22.30;;;0.77;;
3817;SDS011;1924;48.078;11.516;2023-02-28T16:09:09;22.50;;;0.80;;
3817;SDS011;1924;48.078;11.516;2023-02-28T16:11:39;22.47;;;0.80;;
3817;SDS011;1924;48.078;11.516;2023-02-28T16:14:12;22.47;;;0.80;;
3817;SDS011;1924;48.078;11.516;2023-02-28T16:16:42;22.30;;;0.80;;
3817;SDS011;1924;48.078;11.516;2023-02-28T16:19:10;22.33;;;0.70;;
3817;SDS011;1924;48.078;11.516;2023-02-28T16:21:37;22.20;;;0.70;;
3817;SDS011;1924;48.078;11.516;2023-02-28T16:24:08;22.30;;;0.70;;
3817;SDS011;1924;48.078;11.516;2023-02-28T16:26:35;22.40;;;0.77;;
3817;SDS011;1924;48.078;11.516;2023-02-28T16:29:05;22.30;;;0.80;;
3817;SDS011;1924;48.078;11.516;2023-02-28T16:31:34;22.37;;;0.73;;
3817;SDS011;1924;48.078;11.516;2023-02-28T16:34:03;22.30;;;0.80;;
3817;SDS011;1924;48.078;11.516;2023-02-28T16:36:30;22.37;;;0.80;;
3817;SDS011;1924;48.078;11.516;2023-02-28T16:38:57;22.33;;;0.70;;
3817;SDS011;1924;48.078;11.516;2023-02-28T16:41:25;22.43;;;0.70;;
3817;SDS011;1924;48.078;11.516;2023-02-28T16:43:54;22.47;;;0.70;;
3817;SDS011;1924;48.078;11.516;2023-02-28T16:46:23;22.40;;;0.70;;
3817;SDS011;1924;48.078;11.516;2023-02-28T16:48:53;22.53;;;0.80;;
3817;SDS011;1924;48.078;11.516;2023-02-28T16:51:20;22.50;;;0.73;;
3817;SDS011;1924;48.078;11.516;2023-02-28T16:53:47;22.50;;;0.70;;
3817;SDS011;1924;48.078;11.516;2023-02-28T16:56:15;22.47;;;0.70;;
3817;SDS011;1924;48.078;11.516;2023-02-28T16:58:45;22.57;;;0.80;;
3817;SDS011;1924;48.078;11.516;2023-02-28T17:01:13;22.50;;;0.80;;
3817;SDS011;1924;48.078;11.516;2023-02-28T17:03:40;22.53;;;0.80;;
3817;SDS011;1924;48.078;11.516;2023-02-28T17:06:10;22.50;;;0.77;;
3817;SDS011;1924;48.078;11.516;2023-02-28T17:08:44;22.50;;;0.80;;
3817;SDS011;1924;48.078;11.516;2023-02-28T17:11:11;22.40;;;0.80;;
3817;SDS011;1924;48.078;11.516;2023-02-28T17:13:37;22.50;;;0.73;;
3817;SDS011;1924;48.078;11.516;2023-02-28T17:16:07;22.60;;;0.80;;
3817;SDS011;1924;48.078;11.516;2023-02-28T17:18:40;22.50;;;0.80;;
3817;SDS011;1924;48.078;11.516;2023-02-28T17:21:09;22.50;;;0.77;;
3817;SDS011;1924;48.078;11.516;2023-02-28T17:23:39;22.50;;;0.70;;
3817;SDS011;1924;48.078;11.516;2023-02-28T17:26:06;22.40;;;0.70;;
3817;SDS011;1924;48.078;11.516;2023-02-28T17:28:32;22.57;;;0.80;;
3817;SDS011;1924;48.078;11.516;2023-02-28T17:30:59;22.53;;;0.80;;
3817;SDS011;1924;48.078;11.516;2023-02-28T17:33:27;22.40;;;0.80;;